Time;durP1;ratioP1;P1;durP2;ratioP2;P2;SDS_P1;SDS_P2;PMS_P1;PMS_P2;Temp;Humidity;BMP_temperature;BMP_pressure;BME280_temperature;BME280_humidity;BME280_pressure;Samples;Min_cycle;Max_cycle;Signal;HPM_P1;HPM_P2
2022/03/27 00:01:05;;;;;;;;;12.33;12.33;;;;;23.14;50.16;102445.88;5071429;28;45416;-70
2022/03/27 00:03:30;;;;;;;;;18.33;14.00;;;;;23.13;50.12;102449.50;5054832;28;45592;-69
2022/03/27 00:05:56;;;;;;;;;14.33;13.00;;;;;23.14;50.15;102447.69;5077172;28;46314;-69
2022/03/27 00:08:21;;;;;;;;;15.00;15.00;;;;;23.14;50.10;102447.69;5077227;28;45472;-69
2022/03/27 00:13:55;;;;;;;;;17.00;15.67;;;;;23.12;50.37;102442.34;5006313;28;45503;-70
2022/03/27 00:16:21;;;;;;;;;15.00;13.00;;;;;23.11;50.03;102439.63;4990595;28;46986;-70
2022/03/27 00:18:47;;;;;;;;;15.00;14.00;;;;;23.13;50.16;102448.63;5023653;28;45641;-70
2022/03/27 00:21:13;;;;;;;;;15.00;12.67;;;;;23.13;50.24;102444.13;5072036;28;45548;-70
2022/03/27 00:23:38;;;;;;;;;19.33;15.67;;;;;23.14;50.22;102442.31;5077154;28;45240;-70
2022/03/27 00:26:04;;;;;;;;;17.67;15.33;;;;;23.13;50.40;102443.22;5076332;28;47465;-69
2022/03/27 00:28:32;;;;;;;;;17.67;12.67;;;;;23.12;50.22;102439.63;5054657;28;59094;-70
2022/03/27 00:31:16;;;;;;;;;15.67;15.00;;;;;23.13;50.15;102437.84;5056311;28;45461;-70
2022/03/27 00:33:42;;;;;;;;;18.00;14.00;;;;;23.12;50.23;102446.84;5076681;28;45330;-69
2022/03/27 00:36:09;;;;;;;;;16.00;13.67;;;;;23.12;50.09;102442.34;5058100;28;46056;-69
2022/03/27 00:38:35;;;;;;;;;13.33;13.00;;;;;23.13;50.12;102445.91;5075189;28;45361;-69
2022/03/27 00:41:01;;;;;;;;;17.33;14.67;;;;;23.13;50.29;102445.91;5073112;28;45477;-70
2022/03/27 00:43:27;;;;;;;;;17.33;13.33;;;;;23.11;50.21;102443.22;5068852;28;45442;-69
2022/03/27 00:45:52;;;;;;;;;13.00;13.00;;;;;23.12;50.40;102441.44;5074800;28;45862;-69
2022/03/27 00:48:18;;;;;;;;;17.33;15.33;;;;;23.13;50.22;102435.13;5071152;28;45442;-70
2022/03/27 00:50:47;;;;;;;;;15.67;13.00;;;;;23.10;50.18;102438.75;5047155;28;45332;-70
2022/03/27 00:53:12;;;;;;;;;14.33;13.00;;;;;23.13;50.25;102441.41;5069812;28;45526;-69
2022/03/27 00:55:38;;;;;;;;;16.33;16.33;;;;;23.11;50.12;102434.25;5076456;28;46815;-69
2022/03/27 00:58:03;;;;;;;;;16.33;14.67;;;;;23.12;49.83;102436.94;5052041;28;45368;-69
2022/03/27 01:00:42;;;;;;;;;17.00;14.33;;;;;23.11;50.48;102431.56;5056833;28;45645;-69
2022/03/27 01:03:11;;;;;;;;;15.67;14.67;;;;;23.13;50.25;102435.13;5077025;28;45518;-69
2022/03/27 01:05:37;;;;;;;;;13.67;13.67;;;;;23.12;50.09;102426.16;5071309;28;46408;-70
2022/03/27 01:08:05;;;;;;;;;14.00;14.00;;;;;23.11;49.97;102426.16;5074325;28;45403;-70
2022/03/27 01:10:31;;;;;;;;;17.00;16.00;;;;;23.11;50.37;102428.88;5058105;28;45324;-70
2022/03/27 01:12:56;;;;;;;;;18.33;15.00;;;;;23.12;50.32;102436.06;5038500;28;45534;-69
2022/03/27 01:15:24;;;;;;;;;14.67;12.00;;;;;23.13;49.89;102432.44;5069243;28;45830;-70
2022/03/27 01:17:50;;;;;;;;;11.67;11.67;;;;;23.11;50.33;102429.75;5054543;28;45504;-69
2022/03/27 01:20:34;;;;;;;;;17.67;13.67;;;;;23.12;50.15;102426.16;5074440;28;53795;-70
2022/03/27 01:22:59;;;;;;;;;17.67;14.00;;;;;23.09;50.13;102426.22;5069648;28;45508;-69
2022/03/27 01:25:25;;;;;;;;;16.00;12.33;;;;;23.11;50.24;102431.56;5057871;28;45741;-70
2022/03/27 01:27:51;;;;;;;;;18.33;12.33;;;;;23.11;50.45;102423.47;5072347;28;45856;-70
2022/03/27 01:30:16;;;;;;;;;14.33;14.33;;;;;23.10;50.47;102427.09;5075372;28;52244;-70
2022/03/27 01:32:41;;;;;;;;;12.33;12.33;;;;;23.08;50.39;102421.72;5073788;28;50176;-69
2022/03/27 01:35:07;;;;;;;;;14.00;12.00;;;;;23.09;50.38;102420.81;5072381;28;59100;-70
2022/03/27 01:37:33;;;;;;;;;15.33;14.33;;;;;23.09;50.35;102420.81;5074964;28;45821;-70
2022/03/27 01:39:58;;;;;;;;;15.67;14.33;;;;;23.09;50.29;102417.22;5075702;28;45381;-69
2022/03/27 01:42:23;;;;;;;;;17.00;15.33;;;;;23.08;50.31;102421.72;5074536;28;56548;-70
2022/03/27 01:44:49;;;;;;;;;20.00;13.33;;;;;23.08;49.90;102410.97;5074270;28;59667;-70
2022/03/27 01:47:14;;;;;;;;;17.67;13.00;;;;;23.07;50.00;102408.28;5048958;28;45210;-70
2022/03/27 01:49:40;;;;;;;;;12.33;12.33;;;;;23.06;50.33;102401.09;5072628;28;45689;-69
2022/03/27 01:52:06;;;;;;;;;18.00;14.67;;;;;23.07;50.23;102403.78;5057732;28;45574;-70
2022/03/27 01:54:31;;;;;;;;;12.00;12.00;;;;;23.04;49.95;102397.56;5071350;28;47602;-70
2022/03/27 01:56:57;;;;;;;;;17.00;13.67;;;;;23.05;50.39;102400.22;5072770;28;59932;-69
2022/03/27 01:59:22;;;;;;;;;13.67;13.00;;;;;23.06;50.20;102396.59;5060534;28;56971;-69
2022/03/27 02:01:48;;;;;;;;;22.00;13.00;;;;;23.06;49.78;102395.72;5060619;28;47311;-70
2022/03/27 02:04:13;;;;;;;;;13.67;12.00;;;;;23.06;50.06;102388.50;5078985;28;46897;-69
2022/03/27 02:06:39;;;;;;;;;15.33;12.67;;;;;23.03;50.23;102388.59;5078433;28;54451;-70
2022/03/27 02:09:05;;;;;;;;;11.67;11.33;;;;;23.05;50.27;102391.25;5060013;28;45332;-69
2022/03/27 02:11:30;;;;;;;;;15.67;14.00;;;;;23.05;50.21;102388.56;5074661;28;45376;-70
2022/03/27 02:13:56;;;;;;;;;17.00;13.00;;;;;23.05;50.42;102393.94;5074892;28;46580;-69
2022/03/27 02:16:21;;;;;;;;;16.33;11.33;;;;;23.01;50.09;102385.03;5076621;28;47982;-69
2022/03/27 02:18:47;;;;;;;;;13.00;8.33;;;;;23.03;50.15;102380.50;5057962;28;45355;-70
2022/03/27 02:21:12;;;;;;;;;16.00;14.33;;;;;23.04;50.23;102389.47;5078985;28;45389;-69
2022/03/27 02:23:38;;;;;;;;;14.67;12.67;;;;;23.03;50.21;102393.09;5043629;28;48146;-69
2022/03/27 02:26:03;;;;;;;;;16.00;14.00;;;;;23.03;50.12;102395.78;5076102;28;45490;-69
2022/03/27 02:28:29;;;;;;;;;13.00;12.00;;;;;23.02;50.12;102385.91;5047654;28;45434;-69
2022/03/27 02:30:54;;;;;;;;;15.00;15.00;;;;;23.02;50.42;102392.19;5056722;28;57334;-69
2022/03/27 02:33:19;;;;;;;;;10.00;10.00;;;;;23.02;49.87;102394.91;5043602;28;45939;-70
2022/03/27 02:35:45;;;;;;;;;12.67;10.67;;;;;23.02;50.17;102397.59;5060387;28;52239;-69
2022/03/27 02:38:10;;;;;;;;;15.33;12.33;;;;;23.02;50.12;102391.31;5055187;28;53058;-69
2022/03/27 02:40:39;;;;;;;;;11.33;9.00;;;;;23.03;50.43;102403.88;5078408;28;45314;-69
2022/03/27 02:43:05;;;;;;;;;18.00;11.00;;;;;23.03;50.10;102393.97;5049979;28;45786;-69
2022/03/27 02:45:31;;;;;;;;;13.33;12.00;;;;;22.99;50.27;102393.13;5052149;28;45276;-69
2022/03/27 02:47:56;;;;;;;;;12.33;12.00;;;;;23.03;50.19;102399.34;5056929;28;45399;-70
2022/03/27 02:50:21;;;;;;;;;14.00;11.67;;;;;22.98;50.39;102391.34;5045966;28;45242;-69
2022/03/27 02:52:47;;;;;;;;;11.33;10.00;;;;;22.94;50.09;102380.63;5057320;28;54122;-69
2022/03/27 02:55:12;;;;;;;;;15.67;12.00;;;;;23.00;50.55;102394.91;5049228;28;45367;-70
2022/03/27 02:57:38;;;;;;;;;17.00;14.67;;;;;23.00;50.27;102389.50;5055020;28;54967;-69
2022/03/27 03:00:05;;;;;;;;;15.00;12.67;;;;;23.04;50.15;102392.16;5051923;28;45553;-69
2022/03/27 03:02:30;;;;;;;;;15.33;14.67;;;;;23.04;50.41;102390.34;5042827;28;45544;-69
2022/03/27 03:04:56;;;;;;;;;13.67;12.67;;;;;23.08;50.13;102394.78;5054321;28;45427;-70
2022/03/27 03:07:21;;;;;;;;;12.33;12.33;;;;;23.09;50.39;102392.97;5054670;28;45638;-70
2022/03/27 03:09:47;;;;;;;;;11.67;11.00;;;;;23.09;50.46;102396.56;5057815;28;45351;-69
2022/03/27 03:12:12;;;;;;;;;16.67;12.33;;;;;23.12;50.18;102401.91;5055420;28;46957;-70
2022/03/27 03:14:38;;;;;;;;;12.33;12.00;;;;;23.13;50.43;102397.41;5071268;28;45579;-69
2022/03/27 03:17:06;;;;;;;;;8.00;8.00;;;;;23.14;50.09;102399.19;5055270;28;45938;-70
2022/03/27 03:19:32;;;;;;;;;15.67;13.00;;;;;23.13;50.11;102394.72;5053427;28;46296;-69
2022/03/27 03:21:58;;;;;;;;;14.33;13.00;;;;;23.14;50.17;102400.06;5053789;28;46014;-70
2022/03/27 03:24:27;;;;;;;;;13.33;12.00;;;;;23.14;50.08;102405.47;5057868;28;45302;-70
2022/03/27 03:26:53;;;;;;;;;12.67;9.33;;;;;23.13;50.42;102403.69;5056285;28;45563;-69
2022/03/27 03:29:19;;;;;;;;;18.33;13.00;;;;;23.16;50.10;102408.13;5057943;28;45504;-69
2022/03/27 03:31:44;;;;;;;;;12.33;10.33;;;;;23.13;50.67;102397.41;5054498;28;45510;-70
2022/03/27 03:34:10;;;;;;;;;11.00;11.00;;;;;23.16;50.43;102402.72;5047112;28;59832;-69
2022/03/27 03:36:35;;;;;;;;;14.67;13.67;;;;;23.17;50.37;102402.72;5053387;28;45418;-70
2022/03/27 03:39:00;;;;;;;;;8.67;8.67;;;;;23.14;50.36;102396.50;5049121;28;45418;-69
2022/03/27 03:41:26;;;;;;;;;11.00;11.00;;;;;23.15;50.24;102396.47;5057770;28;61844;-69
2022/03/27 03:43:51;;;;;;;;;13.00;10.00;;;;;23.16;50.18;102400.03;5075471;28;52734;-70
2022/03/27 03:46:17;;;;;;;;;11.00;11.00;;;;;23.16;50.14;102400.03;5072419;28;56098;-70
2022/03/27 03:48:42;;;;;;;;;14.00;12.00;;;;;23.15;50.02;102388.38;5070257;28;45345;-70
2022/03/27 03:51:07;;;;;;;;;12.00;10.00;;;;;23.16;50.23;102400.94;5055875;28;46448;-69
2022/03/27 03:53:33;;;;;;;;;13.33;11.33;;;;;23.16;50.55;102411.72;5058131;28;57715;-69
2022/03/27 03:55:58;;;;;;;;;13.33;11.00;;;;;23.16;50.17;102406.31;5059105;28;54958;-68
2022/03/27 03:58:24;;;;;;;;;16.00;10.67;;;;;23.15;50.42;102404.53;5050612;28;45609;-69
2022/03/27 04:00:50;;;;;;;;;10.00;10.00;;;;;23.17;50.14;102404.50;5059064;28;45728;-69
2022/03/27 04:03:16;;;;;;;;;11.67;11.00;;;;;23.16;50.28;102400.03;5076382;28;45574;-69
2022/03/27 04:05:41;;;;;;;;;10.67;9.33;;;;;23.16;50.34;102400.94;5075887;28;47207;-70
2022/03/27 04:08:07;;;;;;;;;11.67;9.67;;;;;23.15;50.17;102400.97;5077927;28;45564;-70
2022/03/27 04:10:32;;;;;;;;;11.33;10.67;;;;;23.15;50.31;102401.84;5076482;28;46143;-70
2022/03/27 04:12:58;;;;;;;;;12.67;10.67;;;;;23.15;50.41;102399.16;5053572;28;58112;-69
2022/03/27 04:15:23;;;;;;;;;12.00;11.00;;;;;23.15;50.14;102399.16;5049646;28;52435;-69
2022/03/27 04:17:50;;;;;;;;;9.33;8.67;;;;;23.15;50.13;102403.66;5059184;28;45344;-69
2022/03/27 04:20:15;;;;;;;;;13.00;11.00;;;;;23.14;50.04;102401.88;5042422;28;46545;-70
2022/03/27 04:22:41;;;;;;;;;10.00;8.33;;;;;23.15;50.25;102412.63;5045160;28;45313;-69
2022/03/27 04:25:07;;;;;;;;;14.00;11.33;;;;;23.13;50.44;102405.50;5071381;28;45454;-69
2022/03/27 04:27:32;;;;;;;;;16.33;12.33;;;;;23.11;50.12;102407.31;5076563;28;45405;-69
2022/03/27 04:29:58;;;;;;;;;7.67;7.33;;;;;23.13;50.00;102402.81;5058325;28;45926;-70
2022/03/27 04:32:23;;;;;;;;;9.67;9.67;;;;;23.10;50.32;102403.72;5076328;28;53442;-69
2022/03/27 04:34:50;;;;;;;;;11.33;10.33;;;;;23.12;50.38;102406.41;5074918;28;54201;-70
2022/03/27 04:37:16;;;;;;;;;9.67;9.33;;;;;23.12;50.33;102414.50;5075253;28;45284;-70
2022/03/27 04:39:41;;;;;;;;;11.00;9.33;;;;;23.12;50.18;102417.19;5072342;28;46734;-70
2022/03/27 04:42:09;;;;;;;;;11.67;9.67;;;;;23.10;49.91;102409.13;5073810;28;58673;-70
2022/03/27 04:44:34;;;;;;;;;8.00;8.00;;;;;23.10;50.54;102411.81;5041789;28;45426;-70
2022/03/27 04:46:59;;;;;;;;;11.67;11.00;;;;;23.10;50.09;102411.81;5076561;28;45628;-69
2022/03/27 04:49:25;;;;;;;;;13.00;11.00;;;;;23.09;50.19;102418.13;5073543;28;45703;-70
2022/03/27 04:51:50;;;;;;;;;10.33;9.33;;;;;23.09;50.38;102415.44;5069126;28;58438;-69
2022/03/27 04:54:16;;;;;;;;;11.67;11.67;;;;;23.06;49.94;102409.19;5074510;28;45803;-70
2022/03/27 04:56:41;;;;;;;;;11.67;10.33;;;;;23.08;49.96;102419.03;5054898;28;45486;-69
2022/03/27 04:59:06;;;;;;;;;13.33;12.67;;;;;23.07;50.02;102417.25;5075678;28;46256;-69
2022/03/27 05:01:32;;;;;;;;;10.67;10.67;;;;;23.07;50.25;102416.38;5068045;28;54886;-70
2022/03/27 05:03:57;;;;;;;;;13.00;9.00;;;;;23.06;50.27;102414.56;5076254;28;45544;-69
2022/03/27 05:06:23;;;;;;;;;10.00;8.33;;;;;23.06;50.20;102422.66;5075085;28;49109;-69
2022/03/27 05:08:49;;;;;;;;;13.00;10.00;;;;;23.02;50.10;102419.13;5045308;28;55503;-68
2022/03/27 05:11:14;;;;;;;;;11.33;9.00;;;;;23.05;50.32;102418.19;5054340;28;45509;-69
2022/03/27 05:13:40;;;;;;;;;10.33;10.33;;;;;23.06;50.06;102425.34;5070386;28;56734;-69
2022/03/27 05:16:05;;;;;;;;;9.00;9.00;;;;;23.05;50.36;102423.56;5076135;28;45204;-70
2022/03/27 05:18:30;;;;;;;;;12.00;9.00;;;;;23.04;50.03;102433.47;5058060;28;49316;-70
2022/03/27 05:20:56;;;;;;;;;10.67;9.00;;;;;23.05;50.17;102431.66;5069414;28;45216;-69
2022/03/27 05:23:21;;;;;;;;;10.67;10.67;;;;;23.04;50.04;102430.78;5078097;28;45474;-70
2022/03/27 05:25:49;;;;;;;;;11.67;9.67;;;;;23.04;50.10;102437.97;5061767;28;45364;-69
2022/03/27 05:28:14;;;;;;;;;11.33;9.00;;;;;23.02;50.08;102438.00;5078707;28;46969;-70
2022/03/27 05:30:40;;;;;;;;;14.00;9.67;;;;;23.02;50.39;102435.31;5058227;28;45474;-69
2022/03/27 05:33:05;;;;;;;;;11.00;10.00;;;;;23.01;50.25;102438.91;5076616;28;45283;-69
2022/03/27 05:35:31;;;;;;;;;9.00;9.00;;;;;22.99;49.96;102435.34;5077292;28;56431;-69
2022/03/27 05:37:57;;;;;;;;;14.67;10.67;;;;;23.01;50.24;102441.63;5054113;28;46700;-70
2022/03/27 05:40:23;;;;;;;;;13.00;10.00;;;;;23.00;50.21;102438.00;5059134;28;45565;-69
2022/03/27 05:42:49;;;;;;;;;9.33;9.33;;;;;22.99;50.37;102436.22;5042249;28;45811;-70
2022/03/27 05:45:14;;;;;;;;;10.00;10.00;;;;;22.99;50.59;102438.91;5077072;28;45142;-69
2022/03/27 05:47:43;;;;;;;;;13.67;11.33;;;;;23.00;50.45;102438.00;5079464;28;45765;-70
2022/03/27 05:50:13;;;;;;;;;10.67;10.00;;;;;22.97;50.62;102435.38;5057912;28;45421;-70
2022/03/27 05:52:38;;;;;;;;;8.00;8.00;;;;;22.97;50.02;102437.19;5074453;28;45288;-70
2022/03/27 05:55:04;;;;;;;;;8.00;8.00;;;;;22.98;50.18;102447.91;5060852;28;45511;-69
2022/03/27 05:57:30;;;;;;;;;11.67;10.00;;;;;22.99;50.35;102438.03;5078571;28;46819;-69
2022/03/27 05:59:55;;;;;;;;;10.67;10.67;;;;;22.99;50.37;102447.00;5077286;28;45434;-70
2022/03/27 06:02:21;;;;;;;;;10.67;9.00;;;;;22.98;50.46;102439.84;5060876;28;45250;-68
2022/03/27 06:04:46;;;;;;;;;13.00;12.00;;;;;22.99;50.11;102452.38;5055560;28;54045;-69
2022/03/27 06:07:12;;;;;;;;;13.67;10.67;;;;;22.98;50.40;102445.22;5077424;28;45371;-69
2022/03/27 06:09:37;;;;;;;;;11.00;9.00;;;;;22.98;50.50;102457.81;5060974;28;45418;-69
2022/03/27 06:12:03;;;;;;;;;10.00;9.00;;;;;22.97;50.60;102456.94;5074430;28;54051;-70
2022/03/27 06:14:29;;;;;;;;;10.33;10.33;;;;;22.96;49.98;102460.53;5071518;28;45526;-69
2022/03/27 06:16:54;;;;;;;;;8.00;8.00;;;;;22.97;50.16;102458.72;5079254;28;46277;-70
2022/03/27 06:19:20;;;;;;;;;10.67;9.33;;;;;22.96;50.31;102467.72;5055840;28;48975;-69
2022/03/27 06:21:45;;;;;;;;;11.33;10.33;;;;;22.98;50.28;102458.69;5070549;28;55608;-69
2022/03/27 06:24:12;;;;;;;;;11.67;9.00;;;;;22.98;50.12;102457.81;5079167;28;45303;-70
2022/03/27 06:26:37;;;;;;;;;10.00;10.00;;;;;22.96;50.25;102457.84;5076822;28;46005;-69
2022/03/27 06:29:03;;;;;;;;;10.00;8.67;;;;;22.99;50.24;102468.56;5077876;28;45296;-69
2022/03/27 06:31:28;;;;;;;;;12.00;10.00;;;;;22.99;49.88;102463.16;5075260;28;47275;-69
2022/03/27 06:33:54;;;;;;;;;11.67;11.00;;;;;22.99;50.10;102470.38;5059517;28;45457;-70
2022/03/27 06:36:19;;;;;;;;;11.67;9.67;;;;;22.99;50.26;102475.75;5075497;28;60631;-69
2022/03/27 06:38:44;;;;;;;;;11.00;9.67;;;;;22.99;50.39;102470.38;5071953;28;58649;-68
2022/03/27 06:41:10;;;;;;;;;13.67;11.00;;;;;23.00;50.62;102467.63;5060142;28;45372;-69
2022/03/27 06:43:36;;;;;;;;;11.00;11.00;;;;;22.99;50.28;102463.16;5053269;28;45405;-68
2022/03/27 06:46:02;;;;;;;;;9.00;9.00;;;;;23.00;50.03;102475.72;5060394;28;45649;-70
2022/03/27 06:48:27;;;;;;;;;14.33;11.00;;;;;23.02;50.29;102470.34;5078239;28;45276;-69
2022/03/27 06:50:52;;;;;;;;;10.67;10.67;;;;;23.01;50.48;102468.56;5075289;28;52367;-69
2022/03/27 06:53:20;;;;;;;;;12.00;10.00;;;;;23.01;50.02;102479.34;5072597;28;53586;-70
2022/03/27 06:55:49;;;;;;;;;11.33;8.67;;;;;23.01;50.38;102476.63;5054841;28;45929;-69
2022/03/27 06:58:14;;;;;;;;;12.00;10.00;;;;;22.98;50.66;102463.19;5078381;28;45367;-69
2022/03/27 07:03:24;;;;;;;;;10.00;10.00;;;;;23.02;50.17;102462.25;5064045;28;45565;-68
2022/03/27 07:05:49;;;;;;;;;12.00;10.33;;;;;23.02;50.17;102466.75;5069230;28;45732;-69
2022/03/27 07:08:16;;;;;;;;;14.33;12.00;;;;;23.02;50.46;102467.63;5056586;28;60563;-69
2022/03/27 07:10:42;;;;;;;;;11.67;11.67;;;;;23.02;50.08;102466.75;5046982;28;45320;-68
2022/03/27 07:13:09;;;;;;;;;11.00;11.00;;;;;23.04;50.21;102470.31;5039295;28;45600;-68
2022/03/27 07:15:35;;;;;;;;;12.00;9.00;;;;;23.04;50.38;102470.31;5072216;27;47692;-69
2022/03/27 07:18:01;;;;;;;;;12.00;10.67;;;;;23.04;50.28;102470.31;5085530;27;45265;-68
2022/03/27 07:20:27;;;;;;;;;10.33;9.33;;;;;23.06;50.29;102476.53;5077365;28;48683;-68
2022/03/27 07:22:54;;;;;;;;;10.00;9.00;;;;;23.06;50.27;102473.84;5055630;28;45596;-68
2022/03/27 07:25:21;;;;;;;;;12.67;10.67;;;;;23.05;50.00;102469.38;5039586;28;46705;-69
2022/03/27 07:27:46;;;;;;;;;10.33;9.33;;;;;23.06;50.26;102473.84;5073408;28;45512;-68
2022/03/27 07:30:12;;;;;;;;;9.33;8.00;;;;;23.05;50.24;102474.78;5076217;28;45645;-68
2022/03/27 07:32:37;;;;;;;;;11.00;10.00;;;;;23.04;50.24;102471.19;5077174;28;45438;-68
2022/03/27 07:35:03;;;;;;;;;11.00;10.00;;;;;23.05;50.30;102475.66;5072609;28;46550;-68
2022/03/27 07:37:32;;;;;;;;;14.00;11.00;;;;;23.05;50.37;102482.84;5069089;28;45438;-68
2022/03/27 07:39:58;;;;;;;;;10.33;10.33;;;;;23.04;50.33;102481.06;5076939;28;45700;-68
2022/03/27 07:42:23;;;;;;;;;9.00;9.00;;;;;23.05;50.50;102488.25;5190009;22;47115;-68
2022/03/27 07:44:49;;;;;;;;;10.33;9.33;;;;;23.05;50.31;102485.53;5047667;28;64711;-68
2022/03/27 07:47:14;;;;;;;;;9.33;9.33;;;;;23.05;50.35;102489.13;5052080;28;59159;-68
2022/03/27 07:49:39;;;;;;;;;11.33;9.00;;;;;23.06;50.00;102487.31;5049964;28;57025;-68
2022/03/27 07:52:06;;;;;;;;;12.00;12.00;;;;;23.04;50.14;102481.97;5055671;28;52190;-68
2022/03/27 07:54:32;;;;;;;;;12.67;11.00;;;;;23.05;50.46;102482.84;5055585;28;45776;-68
2022/03/27 07:56:57;;;;;;;;;8.33;8.33;;;;;23.03;50.24;102480.19;5053691;28;45623;-68
2022/03/27 07:59:23;;;;;;;;;11.00;11.00;;;;;23.04;50.32;102483.78;5057052;28;45470;-68
2022/03/27 08:01:48;;;;;;;;;13.00;10.00;;;;;23.03;50.24;102490.06;5047576;28;45677;-68
2022/03/27 08:04:14;;;;;;;;;11.33;10.00;;;;;23.03;50.27;102487.38;5056444;28;48041;-68
2022/03/27 08:06:39;;;;;;;;;10.00;8.67;;;;;23.03;50.31;102487.38;5056945;28;45293;-68
2022/03/27 08:09:05;;;;;;;;;9.67;9.67;;;;;23.02;50.27;102481.09;5038655;28;50196;-68
2022/03/27 08:11:31;;;;;;;;;9.67;9.67;;;;;23.03;50.67;102487.38;5055685;28;45597;-68
2022/03/27 08:13:57;;;;;;;;;10.00;9.00;;;;;23.01;50.17;102479.34;5034313;28;45909;-68
2022/03/27 08:16:22;;;;;;;;;8.00;8.00;;;;;23.02;50.22;102480.22;5056045;28;56702;-68
2022/03/27 08:18:48;;;;;;;;;10.33;9.00;;;;;23.01;50.38;102484.72;5052747;28;52277;-68
2022/03/27 08:21:13;;;;;;;;;10.33;10.33;;;;;23.02;50.46;102486.50;5049063;28;45483;-68
2022/03/27 08:23:39;;;;;;;;;11.67;9.33;;;;;23.03;50.33;102490.06;5029914;28;61491;-67
2022/03/27 08:28:48;;;;;;;;;11.00;8.00;;;;;23.03;50.44;102490.06;5044426;28;45452;-66
2022/03/27 08:31:13;;;;;;;;;9.00;8.00;;;;;23.03;50.46;102487.38;5055669;28;54230;-66
2022/03/27 08:33:39;;;;;;;;;9.00;9.00;;;;;23.05;50.25;102496.31;5041728;28;46386;-66
2022/03/27 08:36:04;;;;;;;;;13.67;9.33;;;;;23.06;50.27;102492.72;5054521;28;57593;-67
2022/03/27 08:38:30;;;;;;;;;10.33;8.33;;;;;23.11;50.21;102493.53;5055168;28;45570;-67
2022/03/27 08:41:01;;;;;;;;;11.00;11.00;;;;;23.10;50.53;102481.88;5050681;28;46503;-66
2022/03/27 08:43:26;;;;;;;;;28.33;24.00;;;;;23.12;50.66;102481.88;5055705;28;46388;-67
2022/03/27 08:45:52;;;;;;;;;31.67;28.33;;;;;23.06;48.90;102484.63;5017159;28;60651;-68
2022/03/27 08:48:17;;;;;;;;;23.33;22.33;;;;;22.83;47.96;102483.13;5051669;28;46055;-66
2022/03/27 08:51:03;;;;;;;;;35.00;29.67;;;;;22.59;47.31;102478.06;5052636;28;45542;-69
2022/03/27 08:53:43;;;;;;;;;26.33;24.00;;;;;22.31;46.86;102482.88;5055723;28;46396;-68
2022/03/27 08:56:08;;;;;;;;;21.67;20.00;;;;;22.09;46.57;102491.16;5034351;28;45887;-71
2022/03/27 08:58:36;;;;;;;;;28.67;24.67;;;;;21.84;44.53;102482.47;5020585;28;45721;-71
2022/03/27 09:01:05;;;;;;;;;22.67;21.33;;;;;21.63;46.42;102485.34;5052678;28;45394;-70
2022/03/27 09:03:31;;;;;;;;;25.33;24.00;;;;;21.51;45.65;102493.47;5016830;28;45868;-69
2022/03/27 09:05:56;;;;;;;;;23.67;23.00;;;;;21.35;46.21;102493.59;5055241;28;45534;-70
2022/03/27 09:08:22;;;;;;;;;29.67;28.00;;;;;21.26;45.70;102492.75;5054832;28;45376;-68
2022/03/27 09:10:47;;;;;;;;;28.67;26.00;;;;;21.17;45.89;102499.06;5035833;28;46396;-70
2022/03/27 09:13:15;;;;;;;;;28.00;22.67;;;;;21.08;45.89;102504.50;5052350;28;46690;-68
2022/03/27 09:15:42;;;;;;;;;25.33;18.67;;;;;20.97;45.66;102499.19;5050062;28;45493;-66
2022/03/27 09:18:09;;;;;;;;;28.33;23.67;;;;;20.90;46.18;102498.34;5056196;28;45284;-67
2022/03/27 09:20:44;;;;;;;;;26.67;23.67;;;;;20.87;45.91;102506.38;5030868;28;46003;-64
2022/03/27 09:23:30;;;;;;;;;29.67;25.33;;;;;20.80;45.98;102511.81;5044741;28;46821;-70
2022/03/27 09:26:16;;;;;;;;;22.67;21.00;;;;;20.77;45.89;102506.44;5032722;28;45491;-69
2022/03/27 09:28:43;;;;;;;;;25.67;19.67;;;;;20.74;46.07;102507.38;5035986;28;45629;-70
2022/03/27 09:31:16;;;;;;;;;32.67;25.67;;;;;20.70;46.01;102499.31;5020630;28;45514;-69
2022/03/27 09:33:47;;;;;;;;;32.00;28.00;;;;;20.70;45.59;102499.31;5051462;28;46642;-70
2022/03/27 09:36:39;;;;;;;;;22.00;21.00;;;;;20.66;45.43;102501.13;5053047;28;45954;-69
2022/03/27 09:39:06;;;;;;;;;22.67;20.33;;;;;20.68;45.80;102502.03;5037694;28;46666;-67
2022/03/27 09:41:54;;;;;;;;;24.33;21.00;;;;;20.73;45.81;102496.66;5027495;28;46699;-68
2022/03/27 09:44:21;;;;;;;;;31.00;25.67;;;;;20.74;46.05;102496.63;5012319;28;46092;-68
2022/03/27 09:46:57;;;;;;;;;22.67;19.33;;;;;20.74;45.70;102502.00;5053474;28;45461;-68
2022/03/27 09:49:43;;;;;;;;;17.33;16.00;;;;;20.76;45.22;102497.50;5053764;28;45241;-68
2022/03/27 09:52:15;;;;;;;;;27.00;23.33;;;;;20.79;44.75;102494.81;5041882;28;45375;-67
2022/03/27 09:54:48;;;;;;;;;28.33;21.67;;;;;20.81;46.00;102492.13;5030869;28;45961;-69
2022/03/27 09:57:18;;;;;;;;;19.00;17.33;;;;;20.77;45.53;102483.16;5037731;28;45368;-69
2022/03/27 09:59:45;;;;;;;;;17.00;16.67;;;;;20.80;45.06;102488.53;5035088;28;45667;-69
2022/03/27 10:02:21;;;;;;;;;22.33;18.00;;;;;20.83;43.90;102490.34;5051149;28;46380;-69
2022/03/27 10:05:00;;;;;;;;;29.00;23.67;;;;;20.86;44.63;102487.63;5036134;28;46036;-69
2022/03/27 10:07:26;;;;;;;;;19.00;15.33;;;;;20.87;44.86;102484.91;5052120;28;45292;-70
2022/03/27 10:09:55;;;;;;;;;14.00;14.00;;;;;20.93;45.55;102489.34;5034245;28;45490;-69
2022/03/27 10:12:31;;;;;;;;;20.00;16.33;;;;;21.00;45.57;102480.38;5038941;28;45367;-71
2022/03/27 10:15:03;;;;;;;;;25.00;21.00;;;;;21.07;44.86;102481.22;5032397;28;45460;-70
2022/03/27 10:17:30;;;;;;;;;20.00;18.67;;;;;21.08;45.66;102473.16;5037727;28;45459;-69
2022/03/27 10:20:02;;;;;;;;;18.67;17.67;;;;;21.12;45.61;102476.72;5040334;28;45561;-69
2022/03/27 10:22:28;;;;;;;;;21.00;19.67;;;;;21.15;45.24;102468.66;5054146;28;45647;-72
2022/03/27 10:24:55;;;;;;;;;26.67;22.33;;;;;21.15;43.85;102474.03;5057521;28;46749;-70
2022/03/27 10:27:21;;;;;;;;;19.67;18.00;;;;;21.16;45.11;102467.75;5057356;28;45342;-70
2022/03/27 10:29:46;;;;;;;;;26.67;24.33;;;;;21.16;43.75;102465.06;5057765;28;45279;-70
2022/03/27 10:32:12;;;;;;;;;30.33;24.33;;;;;21.12;44.01;102455.22;5035435;28;45585;-69
2022/03/27 10:34:46;;;;;;;;;19.00;17.00;;;;;21.16;44.78;102455.19;5019952;28;59019;-70
2022/03/27 10:37:14;;;;;;;;;26.67;24.67;;;;;21.19;44.42;102460.53;5030203;28;45622;-70
2022/03/27 10:39:57;;;;;;;;;26.67;20.00;;;;;21.23;45.83;102453.34;5033647;28;45369;-70
2022/03/27 10:42:38;;;;;;;;;20.00;18.00;;;;;21.31;45.99;102453.34;5035548;28;45554;-72
2022/03/27 10:45:18;;;;;;;;;19.00;16.67;;;;;21.35;45.06;102447.91;5052571;28;45963;-70
2022/03/27 10:48:04;;;;;;;;;25.67;19.67;;;;;21.37;44.84;102438.06;5040590;28;45459;-72
2022/03/27 10:50:29;;;;;;;;;25.67;21.33;;;;;21.39;44.13;102441.63;5034658;28;45498;-70
2022/03/27 10:52:57;;;;;;;;;17.33;14.67;;;;;21.44;45.61;102438.91;5057124;28;54239;-71
2022/03/27 10:55:28;;;;;;;;;27.00;20.33;;;;;21.44;44.13;102437.09;5057546;28;46765;-70
2022/03/27 10:57:54;;;;;;;;;28.00;25.00;;;;;21.46;44.71;102426.31;5022656;28;45627;-70
2022/03/27 11:00:39;;;;;;;;;24.67;18.67;;;;;21.47;43.37;102422.75;5054131;28;45460;-71
2022/03/27 11:03:05;;;;;;;;;25.67;20.67;;;;;21.47;44.22;102416.50;5040554;28;45568;-70
2022/03/27 11:05:36;;;;;;;;;16.00;15.33;;;;;21.49;44.39;102420.94;5039778;28;45322;-70
2022/03/27 11:08:14;;;;;;;;;30.33;21.33;;;;;21.48;43.88;102416.47;5055925;28;45419;-70
2022/03/27 11:10:40;;;;;;;;;24.67;19.33;;;;;21.52;42.78;102412.84;5052669;28;45627;-69
2022/03/27 11:13:28;;;;;;;;;18.00;17.33;;;;;21.55;44.79;102409.25;5050174;28;45545;-70
2022/03/27 11:16:09;;;;;;;;;21.33;15.67;;;;;21.59;43.79;102409.19;5053496;28;46751;-71
2022/03/27 11:18:38;;;;;;;;;18.33;15.67;;;;;21.66;43.87;102415.41;5056878;28;46647;-70
2022/03/27 11:21:05;;;;;;;;;28.00;20.00;;;;;21.70;43.72;102403.72;5047611;28;45414;-71